This is the latest recevied weather packets stored in our database for station/object N1MCJ. If no packets are shown the sender has not sent any weather packets the latest 10 day(s).
| Time | Temp. | Humidity | Pressure | Rain* | Wind** | Luminosity | Snow |
|---|---|---|---|---|---|---|---|
| 1777748450 | 11.11° C | 72% | 1002.5 hPa | 0 mm | - | 86 W/m² | - |
| 1777747549 | 10.56° C | 74% | 1002.8 hPa | 0 mm | - | 44 W/m² | - |
| 1777746644 | 10.56° C | 75% | 1002.6 hPa | 0 mm | - | 35 W/m² | - |
| 1777745739 | 10.56° C | 74% | 1002.8 hPa | 0 mm | - | 65 W/m² | - |
| 1777744837 | 10.56° C | 75% | 1002.7 hPa | 0 mm | - | 100 W/m² | - |
| 1777743937 | 11.11° C | 75% | 1002.7 hPa | 0 mm | - | 239 W/m² | - |
| 1777743034 | 10.56° C | 80% | 1002.9 hPa | 0 mm | - | 127 W/m² | - |
| 1777742129 | 10.56° C | 80% | 1002.9 hPa | 0 mm | - | 52 W/m² | - |
| 1777741226 | 11.67° C | 80% | 1002.9 hPa | 0 mm | - | 67 W/m² | - |
| 1777740321 | 11.67° C | 82% | 1002.7 hPa | 0 mm | - | 88 W/m² | - |
| 1777739421 | 11.11° C | 82% | 1002.7 hPa | 0 mm | - | 37 W/m² | - |
| 1777738517 | 11.67° C | 81% | 1002.8 hPa | 0 mm | - | 27 W/m² | - |
| 1777737616 | 11.67° C | 81% | 1002.6 hPa | 0 mm | - | 21 W/m² | - |
| 1777736716 | 11.67° C | 78% | 1002.8 hPa | 0 mm | - | 38 W/m² | - |
| 1777735554 | 12.22° C | 78% | 1002.8 hPa | 0 mm | - | 90 W/m² | - |
| 1777734652 | 13.33° C | 76% | 1003.1 hPa | 0 mm | - | 130 W/m² | - |
| 1777733747 | 11.67° C | 79% | 1002.9 hPa | 0 mm | - | 127 W/m² | - |
| 1777732843 | 11.67° C | 82% | 1003.1 hPa | 0 mm | - | 115 W/m² | - |
| 1777731940 | 11.11° C | 82% | 1003.3 hPa | 0 mm | - | 87 W/m² | - |
| 1777731038 | 11.11° C | 85% | 1003.2 hPa | 0 mm | - | 123 W/m² | - |
| 1777730133 | 10.56° C | 86% | 1003.1 hPa | 0 mm | - | 109 W/m² | - |
| 1777729230 | 10.56° C | 89% | 1003.3 hPa | 0 mm | - | 115 W/m² | - |
| 1777728326 | 10° C | 91% | 1003.1 hPa | 0 mm | - | 75 W/m² | - |
| 1777727422 | 10° C | 90% | 1003.2 hPa | 0 mm | - | 76 W/m² | - |
| 1777726520 | 10° C | 94% | 1003.1 hPa | 0 mm | - | 67 W/m² | - |
* Rain latest hour (hover to see other rain measurements)
** Current wind speed in m/s (hover to see current wind gust speed)